sensor_id;sensor_type;location;lat;lon;timestamp;pressure;altitude;pressure_sealevel;temperature;humidity
54600;BME280;40500;51.084;16.958;2022-07-04T00:02:00;100327.20;;;18.98;63.96
54600;BME280;40500;51.084;16.958;2022-07-04T00:04:30;100324.94;;;18.93;64.04
54600;BME280;40500;51.084;16.958;2022-07-04T00:07:05;100323.08;;;18.88;64.13
54600;BME280;40500;51.084;16.958;2022-07-04T00:09:37;100318.30;;;18.80;64.32
54600;BME280;40500;51.084;16.958;2022-07-04T00:12:08;100319.52;;;18.77;64.41
54600;BME280;40500;51.084;16.958;2022-07-04T00:14:39;100323.75;;;18.74;64.51
54600;BME280;40500;51.084;16.958;2022-07-04T00:17:10;100322.17;;;18.70;64.82
54600;BME280;40500;51.084;16.958;2022-07-04T00:19:41;100319.89;;;18.66;64.87
54600;BME280;40500;51.084;16.958;2022-07-04T00:22:11;100323.45;;;18.63;64.96
54600;BME280;40500;51.084;16.958;2022-07-04T00:24:42;100321.47;;;18.59;65.10
54600;BME280;40500;51.084;16.958;2022-07-04T00:27:13;100318.98;;;18.52;65.09
54600;BME280;40500;51.084;16.958;2022-07-04T00:29:44;100324.46;;;18.42;65.00
54600;BME280;40500;51.084;16.958;2022-07-04T00:32:14;100320.96;;;18.27;65.07
54600;BME280;40500;51.084;16.958;2022-07-04T00:34:45;100317.09;;;18.12;65.42
54600;BME280;40500;51.084;16.958;2022-07-04T00:37:16;100311.52;;;18.02;65.72
54600;BME280;40500;51.084;16.958;2022-07-04T00:39:46;100306.95;;;17.94;65.98
54600;BME280;40500;51.084;16.958;2022-07-04T00:42:18;100307.91;;;17.89;66.17
54600;BME280;40500;51.084;16.958;2022-07-04T00:44:48;100302.52;;;17.83;66.41
54600;BME280;40500;51.084;16.958;2022-07-04T00:47:20;100299.79;;;17.76;66.51
54600;BME280;40500;51.084;16.958;2022-07-04T00:49:53;100298.54;;;17.69;66.62
54600;BME280;40500;51.084;16.958;2022-07-04T00:52:24;100298.86;;;17.66;66.90
54600;BME280;40500;51.084;16.958;2022-07-04T00:54:56;100297.09;;;17.66;67.07
54600;BME280;40500;51.084;16.958;2022-07-04T00:57:29;100297.31;;;17.65;67.07
54600;BME280;40500;51.084;16.958;2022-07-04T01:00:00;100300.34;;;17.61;67.15
54600;BME280;40500;51.084;16.958;2022-07-04T01:02:31;100303.48;;;17.54;67.15
54600;BME280;40500;51.084;16.958;2022-07-04T01:05:08;100308.51;;;17.49;67.27
54600;BME280;40500;51.084;16.958;2022-07-04T01:07:39;100300.16;;;17.46;67.45
54600;BME280;40500;51.084;16.958;2022-07-04T01:10:10;100298.30;;;17.44;67.62
54600;BME280;40500;51.084;16.958;2022-07-04T01:12:41;100293.02;;;17.43;67.71
54600;BME280;40500;51.084;16.958;2022-07-04T01:15:12;100293.64;;;17.42;67.88
54600;BME280;40500;51.084;16.958;2022-07-04T01:17:42;100290.27;;;17.37;67.90
54600;BME280;40500;51.084;16.958;2022-07-04T01:20:14;100284.83;;;17.32;67.94
54600;BME280;40500;51.084;16.958;2022-07-04T01:22:45;100282.60;;;17.27;68.14
54600;BME280;40500;51.084;16.958;2022-07-04T01:25:16;100284.08;;;17.22;68.24
54600;BME280;40500;51.084;16.958;2022-07-04T01:27:48;100280.66;;;17.15;68.31
54600;BME280;40500;51.084;16.958;2022-07-04T01:30:20;100280.89;;;17.10;68.41
54600;BME280;40500;51.084;16.958;2022-07-04T01:32:51;100280.58;;;17.01;68.45
54600;BME280;40500;51.084;16.958;2022-07-04T01:35:22;100278.63;;;16.93;68.71
54600;BME280;40500;51.084;16.958;2022-07-04T01:37:53;100269.70;;;16.91;68.98
54600;BME280;40500;51.084;16.958;2022-07-04T01:40:24;100262.17;;;16.89;69.05
54600;BME280;40500;51.084;16.958;2022-07-04T01:42:54;100261.78;;;16.90;69.37
54600;BME280;40500;51.084;16.958;2022-07-04T01:45:27;100259.56;;;16.92;69.50
54600;BME280;40500;51.084;16.958;2022-07-04T01:47:58;100255.31;;;16.96;69.61
54600;BME280;40500;51.084;16.958;2022-07-04T01:50:28;100251.65;;;16.99;69.65
54600;BME280;40500;51.084;16.958;2022-07-04T01:52:58;100247.67;;;17.01;69.68
54600;BME280;40500;51.084;16.958;2022-07-04T01:55:30;100250.70;;;17.05;69.86
54600;BME280;40500;51.084;16.958;2022-07-04T01:58:01;100247.24;;;17.07;70.10
54600;BME280;40500;51.084;16.958;2022-07-04T02:00:35;100240.39;;;17.10;70.25
54600;BME280;40500;51.084;16.958;2022-07-04T02:03:23;100242.95;;;17.12;70.31
54600;BME280;40500;51.084;16.958;2022-07-04T02:05:55;100243.31;;;17.15;70.27
54600;BME280;40500;51.084;16.958;2022-07-04T02:08:26;100236.29;;;17.18;70.35
54600;BME280;40500;51.084;16.958;2022-07-04T02:11:19;100238.16;;;17.20;70.40
54600;BME280;40500;51.084;16.958;2022-07-04T02:13:49;100239.66;;;17.22;70.44
54600;BME280;40500;51.084;16.958;2022-07-04T02:16:19;100240.14;;;17.23;70.60
54600;BME280;40500;51.084;16.958;2022-07-04T02:18:50;100236.26;;;17.23;70.65
54600;BME280;40500;51.084;16.958;2022-07-04T02:21:21;100236.38;;;17.24;70.67
54600;BME280;40500;51.084;16.958;2022-07-04T02:23:52;100235.23;;;17.25;70.66
54600;BME280;40500;51.084;16.958;2022-07-04T02:26:22;100231.82;;;17.27;70.66
54600;BME280;40500;51.084;16.958;2022-07-04T02:28:53;100230.34;;;17.28;70.62
54600;BME280;40500;51.084;16.958;2022-07-04T02:31:25;100237.04;;;17.29;70.66
54600;BME280;40500;51.084;16.958;2022-07-04T02:33:56;100239.48;;;17.29;70.72
54600;BME280;40500;51.084;16.958;2022-07-04T02:36:27;100245.12;;;17.30;70.77
54600;BME280;40500;51.084;16.958;2022-07-04T02:38:58;100247.27;;;17.29;70.74
54600;BME280;40500;51.084;16.958;2022-07-04T02:41:28;100258.67;;;17.28;70.84
54600;BME280;40500;51.084;16.958;2022-07-04T02:43:58;100261.36;;;17.27;70.72
54600;BME280;40500;51.084;16.958;2022-07-04T02:46:29;100263.32;;;17.19;70.74
54600;BME280;40500;51.084;16.958;2022-07-04T02:49:02;100270.23;;;17.11;70.69
54600;BME280;40500;51.084;16.958;2022-07-04T02:51:33;100269.02;;;17.03;70.86
54600;BME280;40500;51.084;16.958;2022-07-04T02:54:04;100265.23;;;17.00;70.96
54600;BME280;40500;51.084;16.958;2022-07-04T02:56:34;100265.46;;;16.99;71.00
54600;BME280;40500;51.084;16.958;2022-07-04T02:59:07;100260.52;;;16.98;71.03
54600;BME280;40500;51.084;16.958;2022-07-04T03:01:37;100260.17;;;16.98;71.14
54600;BME280;40500;51.084;16.958;2022-07-04T03:04:08;100253.39;;;17.00;71.18
54600;BME280;40500;51.084;16.958;2022-07-04T03:06:38;100253.52;;;17.01;71.24
54600;BME280;40500;51.084;16.958;2022-07-04T03:09:11;100258.45;;;17.02;71.25
54600;BME280;40500;51.084;16.958;2022-07-04T03:11:44;100258.75;;;17.03;71.25
54600;BME280;40500;51.084;16.958;2022-07-04T03:14:15;100257.13;;;17.03;71.21
54600;BME280;40500;51.084;16.958;2022-07-04T03:16:46;100258.13;;;17.05;71.20
54600;BME280;40500;51.084;16.958;2022-07-04T03:19:17;100259.84;;;17.06;71.24
54600;BME280;40500;51.084;16.958;2022-07-04T03:21:48;100258.56;;;17.03;71.26
54600;BME280;40500;51.084;16.958;2022-07-04T03:24:18;100258.14;;;17.00;71.44
54600;BME280;40500;51.084;16.958;2022-07-04T03:26:49;100258.55;;;17.04;71.50
54600;BME280;40500;51.084;16.958;2022-07-04T03:29:19;100262.90;;;17.09;71.41
54600;BME280;40500;51.084;16.958;2022-07-04T03:31:50;100261.45;;;17.13;71.26
54600;BME280;40500;51.084;16.958;2022-07-04T03:34:20;100261.92;;;17.18;71.17
54600;BME280;40500;51.084;16.958;2022-07-04T03:36:50;100260.45;;;17.24;71.18
54600;BME280;40500;51.084;16.958;2022-07-04T03:39:21;100264.76;;;17.30;71.21
54600;BME280;40500;51.084;16.958;2022-07-04T03:41:51;100261.17;;;17.35;71.13
54600;BME280;40500;51.084;16.958;2022-07-04T03:44:22;100259.02;;;17.40;70.91
54600;BME280;40500;51.084;16.958;2022-07-04T03:46:52;100262.08;;;17.46;71.07
54600;BME280;40500;51.084;16.958;2022-07-04T03:49:23;100269.70;;;17.53;70.94
54600;BME280;40500;51.084;16.958;2022-07-04T03:51:53;100267.80;;;17.60;70.82
54600;BME280;40500;51.084;16.958;2022-07-04T03:54:23;100268.09;;;17.65;70.66
54600;BME280;40500;51.084;16.958;2022-07-04T03:56:57;100266.54;;;17.71;70.40
54600;BME280;40500;51.084;16.958;2022-07-04T03:59:28;100264.69;;;17.77;70.26
54600;BME280;40500;51.084;16.958;2022-07-04T04:01:58;100261.94;;;17.83;70.09
54600;BME280;40500;51.084;16.958;2022-07-04T04:04:29;100262.41;;;17.89;69.77
54600;BME280;40500;51.084;16.958;2022-07-04T04:07:17;100266.15;;;17.92;69.67
54600;BME280;40500;51.084;16.958;2022-07-04T04:09:50;100267.59;;;17.95;69.43
54600;BME280;40500;51.084;16.958;2022-07-04T04:12:23;100266.27;;;18.00;69.33
54600;BME280;40500;51.084;16.958;2022-07-04T04:14:53;100267.06;;;18.06;69.12
54600;BME280;40500;51.084;16.958;2022-07-04T04:17:26;100267.52;;;18.10;68.98
54600;BME280;40500;51.084;16.958;2022-07-04T04:19:57;100260.86;;;18.16;68.81
54600;BME280;40500;51.084;16.958;2022-07-04T04:22:28;100260.49;;;18.24;68.83
54600;BME280;40500;51.084;16.958;2022-07-04T04:24:59;100260.17;;;18.30;68.59
54600;BME280;40500;51.084;16.958;2022-07-04T04:27:29;100256.87;;;18.36;68.24
54600;BME280;40500;51.084;16.958;2022-07-04T04:30:01;100255.31;;;18.42;67.90
54600;BME280;40500;51.084;16.958;2022-07-04T04:32:34;100254.25;;;18.49;67.65
54600;BME280;40500;51.084;16.958;2022-07-04T04:35:05;100253.36;;;18.56;67.43
54600;BME280;40500;51.084;16.958;2022-07-04T04:37:35;100245.02;;;18.74;67.22
54600;BME280;40500;51.084;16.958;2022-07-04T04:40:12;100244.29;;;19.37;66.46
54600;BME280;40500;51.084;16.958;2022-07-04T04:42:44;100243.91;;;19.77;65.61
54600;BME280;40500;51.084;16.958;2022-07-04T04:45:17;100246.89;;;19.84;65.18
54600;BME280;40500;51.084;16.958;2022-07-04T04:47:48;100242.69;;;19.83;64.94
54600;BME280;40500;51.084;16.958;2022-07-04T04:50:18;100247.48;;;19.80;64.67
54600;BME280;40500;51.084;16.958;2022-07-04T04:52:48;100244.81;;;19.80;64.51
54600;BME280;40500;51.084;16.958;2022-07-04T04:55:19;100244.44;;;19.80;64.31
54600;BME280;40500;51.084;16.958;2022-07-04T04:57:53;100244.81;;;19.83;64.17
54600;BME280;40500;51.084;16.958;2022-07-04T05:00:23;100246.57;;;19.86;63.97
54600;BME280;40500;51.084;16.958;2022-07-04T05:02:53;100243.13;;;19.90;63.81
54600;BME280;40500;51.084;16.958;2022-07-04T05:05:24;100245.01;;;19.95;63.68
54600;BME280;40500;51.084;16.958;2022-07-04T05:07:58;100246.17;;;19.99;63.65
54600;BME280;40500;51.084;16.958;2022-07-04T05:10:28;100247.43;;;20.05;63.59
54600;BME280;40500;51.084;16.958;2022-07-04T05:12:58;100246.64;;;20.12;63.48
54600;BME280;40500;51.084;16.958;2022-07-04T05:15:29;100246.38;;;20.20;63.40
54600;BME280;40500;51.084;16.958;2022-07-04T05:18:00;100244.26;;;20.26;63.06
54600;BME280;40500;51.084;16.958;2022-07-04T05:20:30;100244.30;;;20.31;62.82
54600;BME280;40500;51.084;16.958;2022-07-04T05:23:01;100246.82;;;20.37;62.66
54600;BME280;40500;51.084;16.958;2022-07-04T05:25:35;100255.59;;;20.45;62.43
54600;BME280;40500;51.084;16.958;2022-07-04T05:28:10;100261.09;;;20.54;62.31
54600;BME280;40500;51.084;16.958;2022-07-04T05:30:41;100266.31;;;20.66;62.23
54600;BME280;40500;51.084;16.958;2022-07-04T05:33:12;100263.55;;;20.76;62.16
54600;BME280;40500;51.084;16.958;2022-07-04T05:35:43;100263.81;;;20.86;61.97
54600;BME280;40500;51.084;16.958;2022-07-04T05:38:18;100269.79;;;20.97;61.74
54600;BME280;40500;51.084;16.958;2022-07-04T05:40:49;100272.36;;;21.07;61.52
54600;BME280;40500;51.084;16.958;2022-07-04T05:43:20;100279.89;;;21.18;61.35
54600;BME280;40500;51.084;16.958;2022-07-04T05:45:51;100285.02;;;21.27;61.07
54600;BME280;40500;51.084;16.958;2022-07-04T05:48:22;100288.30;;;21.37;60.72
54600;BME280;40500;51.084;16.958;2022-07-04T05:50:52;100294.39;;;21.48;60.62
54600;BME280;40500;51.084;16.958;2022-07-04T05:53:23;100288.12;;;21.60;60.06
54600;BME280;40500;51.084;16.958;2022-07-04T05:55:54;100285.54;;;21.73;59.97
54600;BME280;40500;51.084;16.958;2022-07-04T05:58:25;100283.17;;;21.82;59.56
54600;BME280;40500;51.084;16.958;2022-07-04T06:00:58;100286.86;;;21.91;59.38
54600;BME280;40500;51.084;16.958;2022-07-04T06:03:29;100288.86;;;21.98;59.18
54600;BME280;40500;51.084;16.958;2022-07-04T06:06:00;100292.31;;;22.06;58.95
54600;BME280;40500;51.084;16.958;2022-07-04T06:08:30;100299.64;;;22.11;58.83
54600;BME280;40500;51.084;16.958;2022-07-04T06:11:02;100298.03;;;22.17;58.73
54600;BME280;40500;51.084;16.958;2022-07-04T06:13:32;100307.73;;;22.21;58.56
54600;BME280;40500;51.084;16.958;2022-07-04T06:16:03;100309.23;;;22.25;58.40
54600;BME280;40500;51.084;16.958;2022-07-04T06:18:33;100317.04;;;22.29;58.01
54600;BME280;40500;51.084;16.958;2022-07-04T06:21:04;100315.23;;;22.32;57.83
54600;BME280;40500;51.084;16.958;2022-07-04T06:23:34;100315.19;;;22.36;57.85
54600;BME280;40500;51.084;16.958;2022-07-04T06:26:05;100316.16;;;22.42;57.88
54600;BME280;40500;51.084;16.958;2022-07-04T06:28:35;100311.77;;;22.49;57.84
54600;BME280;40500;51.084;16.958;2022-07-04T06:31:15;100312.90;;;22.59;57.89
54600;BME280;40500;51.084;16.958;2022-07-04T06:33:49;100310.27;;;22.66;57.97
54600;BME280;40500;51.084;16.958;2022-07-04T06:36:36;100307.15;;;22.73;57.97
54600;BME280;40500;51.084;16.958;2022-07-04T06:39:11;100303.20;;;22.81;58.03
54600;BME280;40500;51.084;16.958;2022-07-04T06:41:42;100300.95;;;22.88;57.87
54600;BME280;40500;51.084;16.958;2022-07-04T06:44:12;100305.26;;;22.95;58.08
54600;BME280;40500;51.084;16.958;2022-07-04T06:46:42;100312.34;;;23.01;58.00
54600;BME280;40500;51.084;16.958;2022-07-04T06:49:15;100309.39;;;23.06;57.73
54600;BME280;40500;51.084;16.958;2022-07-04T06:51:45;100308.62;;;23.09;57.90
54600;BME280;40500;51.084;16.958;2022-07-04T06:54:16;100306.55;;;23.10;57.43
54600;BME280;40500;51.084;16.958;2022-07-04T06:56:46;100308.06;;;23.14;57.38
54600;BME280;40500;51.084;16.958;2022-07-04T06:59:16;100304.25;;;23.18;57.25
54600;BME280;40500;51.084;16.958;2022-07-04T07:01:47;100304.70;;;23.21;56.19
54600;BME280;40500;51.084;16.958;2022-07-04T07:04:17;100301.23;;;23.28;56.39
54600;BME280;40500;51.084;16.958;2022-07-04T07:06:48;100301.48;;;23.37;56.63
54600;BME280;40500;51.084;16.958;2022-07-04T07:09:18;100301.70;;;23.44;56.07
54600;BME280;40500;51.084;16.958;2022-07-04T07:11:49;100299.71;;;23.52;55.82
54600;BME280;40500;51.084;16.958;2022-07-04T07:14:19;100297.44;;;23.59;55.72
54600;BME280;40500;51.084;16.958;2022-07-04T07:16:50;100309.42;;;23.63;54.98
54600;BME280;40500;51.084;16.958;2022-07-04T07:19:20;100306.12;;;23.69;54.19
54600;BME280;40500;51.084;16.958;2022-07-04T07:21:50;100308.39;;;23.78;53.65
54600;BME280;40500;51.084;16.958;2022-07-04T07:24:21;100307.32;;;23.85;53.25
54600;BME280;40500;51.084;16.958;2022-07-04T07:26:54;100305.77;;;23.94;53.16
54600;BME280;40500;51.084;16.958;2022-07-04T07:29:24;100301.29;;;24.04;53.79
54600;BME280;40500;51.084;16.958;2022-07-04T07:31:55;100301.48;;;24.17;53.57
54600;BME280;40500;51.084;16.958;2022-07-04T07:34:25;100305.05;;;24.28;54.16
54600;BME280;40500;51.084;16.958;2022-07-04T07:36:56;100306.04;;;24.43;55.02
54600;BME280;40500;51.084;16.958;2022-07-04T07:39:26;100307.20;;;24.55;55.28
54600;BME280;40500;51.084;16.958;2022-07-04T07:41:56;100305.16;;;24.63;55.17
54600;BME280;40500;51.084;16.958;2022-07-04T07:44:27;100305.85;;;24.73;54.86
54600;BME280;40500;51.084;16.958;2022-07-04T07:46:57;100305.77;;;24.80;54.28
54600;BME280;40500;51.084;16.958;2022-07-04T07:49:27;100302.11;;;24.91;53.97
54600;BME280;40500;51.084;16.958;2022-07-04T07:51:58;100298.43;;;24.99;53.50
54600;BME280;40500;51.084;16.958;2022-07-04T07:54:28;100300.08;;;25.06;52.72
54600;BME280;40500;51.084;16.958;2022-07-04T07:57:18;100302.54;;;25.13;52.37
54600;BME280;40500;51.084;16.958;2022-07-04T07:59:49;100301.71;;;25.19;52.34
54600;BME280;40500;51.084;16.958;2022-07-04T08:02:19;100303.12;;;25.27;51.75
54600;BME280;40500;51.084;16.958;2022-07-04T08:05:11;100303.34;;;25.33;51.14
54600;BME280;40500;51.084;16.958;2022-07-04T08:07:42;100305.56;;;25.39;50.99
54600;BME280;40500;51.084;16.958;2022-07-04T08:10:12;100304.41;;;25.47;50.68
54600;BME280;40500;51.084;16.958;2022-07-04T08:12:42;100305.20;;;25.52;50.25
54600;BME280;40500;51.084;16.958;2022-07-04T08:15:13;100302.00;;;25.58;49.92
54600;BME280;40500;51.084;16.958;2022-07-04T08:17:43;100302.98;;;25.64;49.74
54600;BME280;40500;51.084;16.958;2022-07-04T08:20:15;100302.48;;;25.69;49.33
54600;BME280;40500;51.084;16.958;2022-07-04T08:22:46;100305.73;;;25.73;49.10
54600;BME280;40500;51.084;16.958;2022-07-04T08:25:16;100302.59;;;25.78;48.76
54600;BME280;40500;51.084;16.958;2022-07-04T08:27:47;100300.99;;;25.82;48.30
54600;BME280;40500;51.084;16.958;2022-07-04T08:30:17;100305.81;;;25.85;48.40
54600;BME280;40500;51.084;16.958;2022-07-04T08:32:47;100306.34;;;25.87;48.44
54600;BME280;40500;51.084;16.958;2022-07-04T08:35:18;100306.54;;;25.89;48.10
54600;BME280;40500;51.084;16.958;2022-07-04T08:37:48;100311.44;;;25.91;47.97
54600;BME280;40500;51.084;16.958;2022-07-04T08:40:23;100315.66;;;25.96;48.28
54600;BME280;40500;51.084;16.958;2022-07-04T08:42:54;100314.08;;;26.02;47.85
54600;BME280;40500;51.084;16.958;2022-07-04T08:45:27;100321.67;;;26.07;47.81
54600;BME280;40500;51.084;16.958;2022-07-04T08:48:01;100324.77;;;26.08;47.59
54600;BME280;40500;51.084;16.958;2022-07-04T08:50:34;100325.91;;;26.10;47.72
54600;BME280;40500;51.084;16.958;2022-07-04T08:53:11;100329.56;;;26.11;47.65
54600;BME280;40500;51.084;16.958;2022-07-04T08:55:42;100334.88;;;26.12;47.40
54600;BME280;40500;51.084;16.958;2022-07-04T08:58:33;100338.19;;;26.11;47.30
54600;BME280;40500;51.084;16.958;2022-07-04T09:01:05;100337.27;;;26.09;47.19
54600;BME280;40500;51.084;16.958;2022-07-04T09:03:36;100341.98;;;26.15;47.33
54600;BME280;40500;51.084;16.958;2022-07-04T09:06:06;100349.46;;;26.20;47.28
54600;BME280;40500;51.084;16.958;2022-07-04T09:08:38;100353.30;;;26.21;46.85
54600;BME280;40500;51.084;16.958;2022-07-04T09:11:09;100351.52;;;26.23;47.35
54600;BME280;40500;51.084;16.958;2022-07-04T09:13:39;100352.59;;;26.23;47.28
54600;BME280;40500;51.084;16.958;2022-07-04T09:16:10;100347.08;;;26.20;47.17
54600;BME280;40500;51.084;16.958;2022-07-04T09:18:40;100352.09;;;26.18;47.34
54600;BME280;40500;51.084;16.958;2022-07-04T09:21:11;100355.31;;;26.17;47.35
54600;BME280;40500;51.084;16.958;2022-07-04T09:23:42;100357.58;;;26.15;47.33
54600;BME280;40500;51.084;16.958;2022-07-04T09:26:18;100358.65;;;26.15;47.26
54600;BME280;40500;51.084;16.958;2022-07-04T09:28:52;100357.60;;;26.15;47.56
54600;BME280;40500;51.084;16.958;2022-07-04T09:31:25;100353.77;;;26.16;47.29
54600;BME280;40500;51.084;16.958;2022-07-04T09:33:57;100359.90;;;26.22;47.62
54600;BME280;40500;51.084;16.958;2022-07-04T09:36:29;100363.98;;;26.27;47.50
54600;BME280;40500;51.084;16.958;2022-07-04T09:39:09;100360.47;;;26.26;47.39
54600;BME280;40500;51.084;16.958;2022-07-04T09:41:58;100355.39;;;26.24;47.45
54600;BME280;40500;51.084;16.958;2022-07-04T09:44:43;100353.46;;;26.21;47.36
54600;BME280;40500;51.084;16.958;2022-07-04T09:47:22;100363.75;;;26.16;47.46
54600;BME280;40500;51.084;16.958;2022-07-04T09:50:00;100370.60;;;26.14;47.54
54600;BME280;40500;51.084;16.958;2022-07-04T09:52:32;100373.60;;;26.12;47.58
54600;BME280;40500;51.084;16.958;2022-07-04T09:55:04;100376.30;;;26.06;47.80
54600;BME280;40500;51.084;16.958;2022-07-04T09:57:35;100376.19;;;25.98;47.84
54600;BME280;40500;51.084;16.958;2022-07-04T10:00:20;100375.77;;;25.94;47.98
54600;BME280;40500;51.084;16.958;2022-07-04T10:02:52;100377.34;;;25.95;47.88
54600;BME280;40500;51.084;16.958;2022-07-04T10:05:26;100374.08;;;25.93;48.13
54600;BME280;40500;51.084;16.958;2022-07-04T10:07:57;100371.04;;;25.86;48.39
54600;BME280;40500;51.084;16.958;2022-07-04T10:10:31;100367.58;;;25.82;48.20
54600;BME280;40500;51.084;16.958;2022-07-04T10:13:05;100372.16;;;25.81;48.34
54600;BME280;40500;51.084;16.958;2022-07-04T10:15:38;100370.45;;;25.80;48.69
54600;BME280;40500;51.084;16.958;2022-07-04T10:18:09;100368.23;;;25.76;48.82
54600;BME280;40500;51.084;16.958;2022-07-04T10:20:41;100370.85;;;25.75;48.80
54600;BME280;40500;51.084;16.958;2022-07-04T10:23:12;100372.38;;;25.85;48.81
54600;BME280;40500;51.084;16.958;2022-07-04T10:25:48;100371.67;;;25.96;48.62
54600;BME280;40500;51.084;16.958;2022-07-04T10:28:20;100366.09;;;26.05;48.61
54600;BME280;40500;51.084;16.958;2022-07-04T10:30:52;100365.01;;;26.14;48.56
54600;BME280;40500;51.084;16.958;2022-07-04T10:33:26;100361.27;;;26.20;48.17
54600;BME280;40500;51.084;16.958;2022-07-04T10:35:58;100353.83;;;26.21;48.29
54600;BME280;40500;51.084;16.958;2022-07-04T10:38:31;100350.73;;;26.24;48.27
54600;BME280;40500;51.084;16.958;2022-07-04T10:41:05;100353.20;;;26.24;48.24
54600;BME280;40500;51.084;16.958;2022-07-04T10:43:52;100355.79;;;26.26;48.27
54600;BME280;40500;51.084;16.958;2022-07-04T10:49:23;100355.36;;;26.22;48.15
54600;BME280;40500;51.084;16.958;2022-07-04T10:51:55;100354.03;;;26.17;48.17
54600;BME280;40500;51.084;16.958;2022-07-04T10:54:31;100352.92;;;26.19;48.18
54600;BME280;40500;51.084;16.958;2022-07-04T10:57:11;100348.22;;;26.22;48.23
54600;BME280;40500;51.084;16.958;2022-07-04T10:59:43;100344.90;;;26.21;48.29
54600;BME280;40500;51.084;16.958;2022-07-04T11:02:25;100345.55;;;26.24;48.29
54600;BME280;40500;51.084;16.958;2022-07-04T11:05:02;100341.98;;;26.28;48.40
54600;BME280;40500;51.084;16.958;2022-07-04T11:10:21;100335.01;;;26.36;48.54
54600;BME280;40500;51.084;16.958;2022-07-04T11:13:15;100330.78;;;26.43;48.51
54600;BME280;40500;51.084;16.958;2022-07-04T11:16:03;100322.65;;;26.51;48.21
54600;BME280;40500;51.084;16.958;2022-07-04T11:18:42;100316.20;;;26.55;48.54
54600;BME280;40500;51.084;16.958;2022-07-04T11:21:23;100315.27;;;26.62;48.45
54600;BME280;40500;51.084;16.958;2022-07-04T11:23:55;100313.27;;;26.71;48.18
54600;BME280;40500;51.084;16.958;2022-07-04T11:26:26;100305.84;;;26.78;47.95
54600;BME280;40500;51.084;16.958;2022-07-04T11:28:57;100311.95;;;26.84;47.72
54600;BME280;40500;51.084;16.958;2022-07-04T11:31:41;100306.21;;;26.95;47.63
54600;BME280;40500;51.084;16.958;2022-07-04T11:34:13;100307.71;;;27.08;47.23
54600;BME280;40500;51.084;16.958;2022-07-04T11:36:45;100303.95;;;27.16;47.13
54600;BME280;40500;51.084;16.958;2022-07-04T11:39:17;100302.70;;;27.22;46.78
54600;BME280;40500;51.084;16.958;2022-07-04T11:41:51;100295.78;;;27.30;46.41
54600;BME280;40500;51.084;16.958;2022-07-04T11:44:44;100303.79;;;27.37;46.21
54600;BME280;40500;51.084;16.958;2022-07-04T11:47:35;100305.50;;;27.51;46.42
54600;BME280;40500;51.084;16.958;2022-07-04T11:50:08;100299.69;;;27.57;45.85
54600;BME280;40500;51.084;16.958;2022-07-04T11:52:44;100301.55;;;27.69;45.56
54600;BME280;40500;51.084;16.958;2022-07-04T11:55:35;100295.41;;;27.81;45.11
54600;BME280;40500;51.084;16.958;2022-07-04T11:58:06;100292.50;;;27.93;45.15
54600;BME280;40500;51.084;16.958;2022-07-04T12:00:40;100292.74;;;28.09;44.91
54600;BME280;40500;51.084;16.958;2022-07-04T12:03:11;100292.66;;;28.17;44.28
54600;BME280;40500;51.084;16.958;2022-07-04T12:05:42;100295.37;;;28.27;44.19
54600;BME280;40500;51.084;16.958;2022-07-04T12:08:15;100292.36;;;28.30;44.01
54600;BME280;40500;51.084;16.958;2022-07-04T12:10:55;100288.88;;;28.33;43.89
54600;BME280;40500;51.084;16.958;2022-07-04T12:13:25;100289.06;;;28.37;44.06
54600;BME280;40500;51.084;16.958;2022-07-04T12:15:55;100289.55;;;28.42;44.04
54600;BME280;40500;51.084;16.958;2022-07-04T12:18:28;100288.02;;;28.49;43.94
54600;BME280;40500;51.084;16.958;2022-07-04T12:21:14;100292.39;;;28.58;43.94
54600;BME280;40500;51.084;16.958;2022-07-04T12:23:53;100285.48;;;28.64;43.60
54600;BME280;40500;51.084;16.958;2022-07-04T12:26:49;100281.88;;;28.66;43.55
54600;BME280;40500;51.084;16.958;2022-07-04T12:29:24;100287.42;;;28.68;43.75
54600;BME280;40500;51.084;16.958;2022-07-04T12:32:00;100288.73;;;28.73;43.13
54600;BME280;40500;51.084;16.958;2022-07-04T12:34:31;100287.80;;;28.76;42.98
54600;BME280;40500;51.084;16.958;2022-07-04T12:37:08;100287.91;;;28.76;43.25
54600;BME280;40500;51.084;16.958;2022-07-04T12:39:41;100283.81;;;28.76;43.56
54600;BME280;40500;51.084;16.958;2022-07-04T12:42:14;100283.02;;;28.69;43.82
54600;BME280;40500;51.084;16.958;2022-07-04T12:44:46;100288.02;;;28.72;43.57
54600;BME280;40500;51.084;16.958;2022-07-04T12:47:18;100286.96;;;28.69;43.03
54600;BME280;40500;51.084;16.958;2022-07-04T12:50:08;100284.92;;;28.68;42.73
54600;BME280;40500;51.084;16.958;2022-07-04T12:52:40;100283.05;;;28.65;42.34
54600;BME280;40500;51.084;16.958;2022-07-04T12:55:11;100289.81;;;28.60;41.99
54600;BME280;40500;51.084;16.958;2022-07-04T12:57:44;100289.54;;;28.54;41.40
54600;BME280;40500;51.084;16.958;2022-07-04T13:00:15;100289.55;;;28.47;41.11
54600;BME280;40500;51.084;16.958;2022-07-04T13:03:04;100287.39;;;28.45;40.94
54600;BME280;40500;51.084;16.958;2022-07-04T13:05:38;100289.84;;;28.50;41.07
54600;BME280;40500;51.084;16.958;2022-07-04T13:08:09;100288.91;;;28.50;41.25
54600;BME280;40500;51.084;16.958;2022-07-04T13:10:41;100289.20;;;28.49;41.61
54600;BME280;40500;51.084;16.958;2022-07-04T13:13:11;100290.34;;;28.47;41.33
54600;BME280;40500;51.084;16.958;2022-07-04T13:15:41;100290.84;;;28.57;41.24